Portada
METAR-TAF:

METAR-TAF

Aeropuertos :

Chongqing, China

Aeropuerto Internacional de Chongqing-Jiangbei

latitud: 29-31N, longitud: 106-29E, altitud: 351 m

Observación

El informe se hizo hace 40 minutos, a las 16:00 UTC
Viento 10 kt del noreste
Temperatura 28°C
Humedad 40%
Presión 1007 hPa
Visibilidad 10 km o más
sin nubes por debajo de 1500 m y sin presencia de cumulonimbus.

METAR: ZUCK 281600Z 04005MPS CAVOK 28/13 Q1007 NOSIG

Hora: 00:40 (16:40 UTC)

Pronóstico

El informe se hizo hace 7 horas y 36 minutos, a las 09:04 UTC
Pronóstico válido del 28 a las 12 UTC al 29 a las 12 UTC
Viento 6 kt del este-sureste
Visibilidad: 6000 m
Nubes dispersas a una altura de 5000 ft
Temporalmente
del 29 a las 00 UTC al 29 a las 06 UTC
chaparrones de lluvia

TAF: ZUCK 280904Z 2812/2912 12003MPS 6000 SCT050 TX30/2908Z TN24/2822Z TEMPO 2900/2906 -SHRA

Observaciones y pronósticos meteorológicos de más de 4000 aeropuertos (mensajes METAR y TAF).

Los puntos amarillos y rojos representan las estaciones disponibles.

Ponga el ratón en el punto deseado para ver el nombre de la estación.

Haga clic para ver las observaciones y los pronósticos meteorológicos.

Para cambiar el mapa : haga clic en los botones verdes con una cruz de color negro para hacer un zoom, en el botón verde con un guión para alejar o en las flechas verdes para mapas adyacentes.


METAR-TAF: